createdAt,value
2022-12-18T00:02:22.345Z,4.83
2022-12-18T00:04:49.868Z,5.10
2022-12-18T00:07:16.715Z,4.53
2022-12-18T00:09:43.770Z,4.37
2022-12-18T00:14:43.028Z,3.53
2022-12-18T00:17:09.971Z,5.43
2022-12-18T00:19:37.475Z,4.80
2022-12-18T00:22:04.375Z,4.40
2022-12-18T00:24:31.632Z,3.60
2022-12-18T00:26:58.688Z,4.93
2022-12-18T00:29:26.951Z,4.53
2022-12-18T00:31:54.077Z,4.27
2022-12-18T00:34:21.365Z,4.40
2022-12-18T00:36:49.305Z,4.23
2022-12-18T00:39:16.224Z,4.20
2022-12-18T00:41:45.344Z,4.73
2022-12-18T00:44:14.601Z,4.83
2022-12-18T00:46:43.918Z,3.70
2022-12-18T00:49:11.054Z,3.70
2022-12-18T00:51:38.249Z,4.27
2022-12-18T00:54:05.264Z,4.50
2022-12-18T00:56:32.600Z,4.90
2022-12-18T00:58:59.447Z,4.03
2022-12-18T01:01:26.700Z,3.63
2022-12-18T01:03:55.216Z,4.07
2022-12-18T01:06:21.929Z,3.13
2022-12-18T01:08:49.038Z,3.80
2022-12-18T01:11:19.551Z,4.93
2022-12-18T01:13:47.228Z,4.30
2022-12-18T01:16:16.584Z,3.70
2022-12-18T01:18:50.153Z,4.67
2022-12-18T01:21:18.250Z,3.60
2022-12-18T01:23:45.074Z,3.80
2022-12-18T01:26:16.220Z,3.30
2022-12-18T01:28:44.911Z,3.00
2022-12-18T01:31:19.369Z,5.10
2022-12-18T01:33:47.311Z,3.90
2022-12-18T01:36:21.922Z,3.77
2022-12-18T01:38:49.828Z,4.90
2022-12-18T01:41:20.158Z,4.70
2022-12-18T01:43:53.653Z,3.37
2022-12-18T01:46:24.936Z,3.87
2022-12-18T01:48:57.617Z,3.53
2022-12-18T01:51:29.423Z,4.23
2022-12-18T01:53:57.665Z,3.30
2022-12-18T01:56:24.712Z,3.43
2022-12-18T01:58:59.373Z,4.63
2022-12-18T02:01:27.513Z,3.40
2022-12-18T02:03:54.407Z,4.30
2022-12-18T02:06:34.353Z,3.10
2022-12-18T02:09:14.414Z,4.77
2022-12-18T02:11:50.694Z,2.77
2022-12-18T02:14:28.493Z,4.37
2022-12-18T02:17:04.939Z,3.80
2022-12-18T02:19:55.055Z,4.50
2022-12-18T02:22:38.520Z,3.57
2022-12-18T02:25:25.414Z,3.97
2022-12-18T02:28:00.522Z,3.93
2022-12-18T02:30:38.557Z,4.67
2022-12-18T02:33:10.931Z,4.53
2022-12-18T02:35:42.899Z,3.67
2022-12-18T02:38:12.043Z,4.07
2022-12-18T02:40:42.975Z,4.10
2022-12-18T02:43:15.105Z,3.83
2022-12-18T02:45:49.640Z,3.58
2022-12-18T02:48:23.274Z,3.80
2022-12-18T02:51:04.108Z,4.03
2022-12-18T02:53:41.539Z,3.63
2022-12-18T02:56:16.491Z,3.73
2022-12-18T02:58:57.069Z,3.37
2022-12-18T03:01:58.411Z,3.47
2022-12-18T03:04:37.996Z,2.37
2022-12-18T03:07:12.334Z,3.43
2022-12-18T03:09:46.959Z,3.90
2022-12-18T03:12:22.122Z,3.47
2022-12-18T03:14:57.012Z,3.60
2022-12-18T03:17:27.550Z,3.67
2022-12-18T03:20:01.015Z,3.73
2022-12-18T03:22:33.179Z,4.13
2022-12-18T03:27:32.554Z,2.80
2022-12-18T03:30:12.499Z,3.13
2022-12-18T03:32:45.493Z,3.80
2022-12-18T03:35:21.603Z,2.37
2022-12-18T03:37:48.545Z,2.97
2022-12-18T03:40:15.983Z,3.60
2022-12-18T03:42:51.306Z,3.07
2022-12-18T03:45:28.036Z,3.27
2022-12-18T03:48:05.161Z,3.33
2022-12-18T03:50:48.958Z,2.73
2022-12-18T03:53:29.966Z,3.05
2022-12-18T03:56:00.100Z,3.47
2022-12-18T03:58:37.547Z,3.87
2022-12-18T04:01:35.117Z,3.60
2022-12-18T04:04:04.486Z,3.93
2022-12-18T04:06:36.119Z,4.00
2022-12-18T04:09:04.148Z,2.40
2022-12-18T04:11:33.200Z,3.27
2022-12-18T04:14:07.072Z,3.10
2022-12-18T04:16:37.094Z,3.25
2022-12-18T04:19:06.337Z,3.23
2022-12-18T04:21:39.240Z,3.80
2022-12-18T04:24:07.783Z,2.17
2022-12-18T04:26:36.560Z,4.53
2022-12-18T04:29:26.556Z,2.77
2022-12-18T04:31:54.719Z,3.30
2022-12-18T04:34:22.394Z,1.73
2022-12-18T04:36:52.575Z,3.03
2022-12-18T04:39:20.676Z,3.20
2022-12-18T04:41:49.786Z,2.40
2022-12-18T04:44:16.488Z,1.83
2022-12-18T04:46:43.424Z,3.67
2022-12-18T04:49:11.795Z,2.77
2022-12-18T04:51:38.656Z,3.47
2022-12-18T04:54:06.178Z,2.57
2022-12-18T04:56:33.358Z,2.90
2022-12-18T04:59:00.812Z,2.83
2022-12-18T05:01:34.086Z,2.70
2022-12-18T05:04:01.649Z,2.70
2022-12-18T05:06:30.373Z,2.57
2022-12-18T05:08:57.576Z,3.13
2022-12-18T05:11:24.652Z,3.20
2022-12-18T05:13:51.590Z,2.77
2022-12-18T05:16:18.744Z,2.73
2022-12-18T05:18:49.913Z,3.13
2022-12-18T05:21:16.869Z,4.13
2022-12-18T05:23:45.022Z,2.17
2022-12-18T05:26:17.355Z,2.73
2022-12-18T05:28:46.231Z,2.67
2022-12-18T05:31:13.141Z,3.47
2022-12-18T05:33:40.367Z,3.00
2022-12-18T05:36:10.248Z,2.43
2022-12-18T05:38:39.696Z,3.10
2022-12-18T05:41:09.276Z,3.13
2022-12-18T05:43:39.107Z,3.60
2022-12-18T05:46:11.911Z,4.13
2022-12-18T05:48:38.781Z,3.60
2022-12-18T05:51:08.446Z,3.20
2022-12-18T05:53:37.552Z,2.80
2022-12-18T05:56:10.034Z,3.07
2022-12-18T06:01:09.462Z,2.20
2022-12-18T06:03:37.497Z,3.07
2022-12-18T06:06:05.072Z,3.70
2022-12-18T06:08:32.358Z,2.57
2022-12-18T06:10:59.182Z,3.10
2022-12-18T06:13:27.615Z,3.40
2022-12-18T06:15:54.707Z,3.37
2022-12-18T06:18:21.576Z,4.33
2022-12-18T06:20:56.097Z,3.53
2022-12-18T06:23:23.440Z,3.03
2022-12-18T06:25:50.546Z,3.57
2022-12-18T06:28:23.505Z,3.77
2022-12-18T06:31:03.188Z,3.60
2022-12-18T06:33:34.714Z,3.20
2022-12-18T06:36:14.066Z,3.53
2022-12-18T06:38:45.968Z,3.50
2022-12-18T06:41:23.429Z,2.87
2022-12-18T06:44:00.400Z,3.33
2022-12-18T06:46:38.713Z,3.63
2022-12-18T06:49:15.665Z,3.50
2022-12-18T06:51:45.015Z,2.83
2022-12-18T06:54:20.081Z,2.83
2022-12-18T06:56:50.839Z,2.97
2022-12-18T06:59:24.196Z,3.67
2022-12-18T07:01:57.451Z,1.67
2022-12-18T07:04:34.481Z,3.77
2022-12-18T07:07:07.945Z,2.37
2022-12-18T07:09:44.882Z,2.83
2022-12-18T07:12:21.778Z,3.23
2022-12-18T07:14:58.234Z,3.83
2022-12-18T07:17:36.745Z,3.33
2022-12-18T07:20:09.633Z,2.80
2022-12-18T07:22:48.897Z,3.90
2022-12-18T07:25:26.322Z,3.03
2022-12-18T07:27:58.186Z,2.53
2022-12-18T07:30:38.699Z,3.17
2022-12-18T07:33:17.394Z,3.60
2022-12-18T07:35:49.519Z,3.57
2022-12-18T07:38:26.251Z,3.73
2022-12-18T07:41:02.718Z,4.33
2022-12-18T07:43:36.119Z,3.57
2022-12-18T07:46:14.081Z,4.43
2022-12-18T07:48:51.846Z,3.33
2022-12-18T07:51:28.855Z,3.77
2022-12-18T07:54:00.461Z,4.30
2022-12-18T07:56:37.669Z,3.80
2022-12-18T07:59:20.033Z,4.67
2022-12-18T08:01:57.092Z,3.28
2022-12-18T08:04:35.835Z,3.80
2022-12-18T08:07:14.048Z,2.73
2022-12-18T08:09:49.796Z,2.33
2022-12-18T08:12:24.831Z,3.67
2022-12-18T08:15:00.912Z,4.97
2022-12-18T08:17:34.612Z,4.00
2022-12-18T08:20:13.987Z,3.53
2022-12-18T08:22:51.253Z,4.47
2022-12-18T08:25:28.098Z,4.30
2022-12-18T08:28:05.150Z,4.53
2022-12-18T08:30:42.367Z,5.57
2022-12-18T08:33:19.511Z,3.23
2022-12-18T08:35:59.951Z,3.27
2022-12-18T08:38:36.875Z,3.60
2022-12-18T08:41:16.833Z,4.00
2022-12-18T08:43:52.789Z,5.03
2022-12-18T08:46:37.929Z,4.83
2022-12-18T08:49:15.124Z,4.47
2022-12-18T08:51:43.620Z,4.70
2022-12-18T08:54:18.403Z,5.80
2022-12-18T08:56:55.279Z,5.10
2022-12-18T08:59:32.445Z,4.07
2022-12-18T09:02:10.844Z,4.83
2022-12-18T09:04:51.137Z,4.63
2022-12-18T09:07:32.160Z,4.67
2022-12-18T09:10:09.550Z,3.73
2022-12-18T09:12:46.332Z,4.47
2022-12-18T09:15:23.098Z,3.87
2022-12-18T09:17:59.805Z,4.73
2022-12-18T09:20:36.534Z,4.53
2022-12-18T09:23:15.641Z,3.57
2022-12-18T09:25:52.379Z,4.13
2022-12-18T09:28:29.429Z,4.37
2022-12-18T09:31:09.881Z,3.90
2022-12-18T09:33:43.560Z,5.63
2022-12-18T09:36:20.455Z,5.57
2022-12-18T09:39:00.846Z,5.43
2022-12-18T09:41:43.519Z,4.57
2022-12-18T09:44:23.174Z,4.10
2022-12-18T09:47:00.504Z,4.33
2022-12-18T09:49:35.050Z,4.67
2022-12-18T09:52:11.486Z,4.23
2022-12-18T09:54:42.358Z,3.57
2022-12-18T09:57:16.520Z,4.27
2022-12-18T09:59:49.844Z,4.57
2022-12-18T10:02:19.973Z,4.67
2022-12-18T10:05:01.859Z,4.23
2022-12-18T10:07:43.594Z,4.53
2022-12-18T10:10:27.749Z,4.40
2022-12-18T10:13:04.844Z,4.33
2022-12-18T10:15:46.870Z,4.17
2022-12-18T10:18:29.988Z,3.83
2022-12-18T10:21:08.432Z,5.33
2022-12-18T10:23:51.447Z,5.60
2022-12-18T10:26:19.762Z,4.83
2022-12-18T10:28:48.263Z,3.33
2022-12-18T10:31:19.578Z,4.13
2022-12-18T10:33:47.377Z,4.47
2022-12-18T10:36:14.709Z,4.20
2022-12-18T10:38:42.636Z,4.70
2022-12-18T10:41:27.724Z,4.50
2022-12-18T10:44:16.814Z,3.80
2022-12-18T10:47:06.201Z,5.63
2022-12-18T10:49:51.179Z,4.88
2022-12-18T10:52:28.647Z,5.95
2022-12-18T10:55:06.514Z,4.80
2022-12-18T10:57:44.779Z,5.03
2022-12-18T11:00:30.330Z,4.77
2022-12-18T11:03:00.976Z,4.07
2022-12-18T11:05:36.381Z,4.57
2022-12-18T11:08:04.857Z,4.90
2022-12-18T11:10:47.984Z,4.57
2022-12-18T11:13:30.141Z,4.40
2022-12-18T11:16:00.368Z,4.73
2022-12-18T11:18:36.890Z,4.03
2022-12-18T11:21:30.705Z,4.47
2022-12-18T11:24:01.639Z,3.80
2022-12-18T11:26:36.107Z,4.83
2022-12-18T11:29:23.372Z,3.57
2022-12-18T11:32:27.986Z,5.13
2022-12-18T11:35:15.811Z,4.60
2022-12-18T11:38:07.791Z,5.07
2022-12-18T11:40:46.429Z,4.93
2022-12-18T11:43:21.709Z,4.20
2022-12-18T11:45:55.475Z,5.97
2022-12-18T11:48:40.173Z,4.77
2022-12-18T11:51:29.067Z,5.27
2022-12-18T11:54:13.709Z,3.97
2022-12-18T11:56:54.942Z,4.45
2022-12-18T11:59:50.282Z,5.30
2022-12-18T12:03:15.632Z,4.93
2022-12-18T12:06:09.454Z,4.68
2022-12-18T12:09:02.107Z,5.40
2022-12-18T12:11:53.951Z,5.13
2022-12-18T12:14:51.602Z,5.10
2022-12-18T12:17:38.994Z,4.80
2022-12-18T12:20:26.815Z,4.50
2022-12-18T12:23:05.595Z,4.93
2022-12-18T12:25:47.576Z,4.67
2022-12-18T12:28:37.754Z,5.07
2022-12-18T12:31:22.333Z,5.00
2022-12-18T12:34:07.189Z,5.27
2022-12-18T12:36:58.224Z,4.63
2022-12-18T12:39:33.496Z,6.20
2022-12-18T12:42:18.866Z,6.47
2022-12-18T12:44:56.536Z,4.70
2022-12-18T12:47:31.584Z,5.60
2022-12-18T12:50:04.966Z,5.60
2022-12-18T12:52:42.038Z,6.13
2022-12-18T12:55:18.496Z,5.53
2022-12-18T12:58:24.399Z,7.03
2022-12-18T13:01:05.535Z,5.50
2022-12-18T13:03:48.931Z,6.20
2022-12-18T13:06:36.934Z,7.23
2022-12-18T13:09:06.094Z,8.03
2022-12-18T13:11:38.671Z,7.13
2022-12-18T13:14:05.991Z,6.27
2022-12-18T13:16:32.876Z,6.93
2022-12-18T13:19:00.135Z,10.57
2022-12-18T13:21:30.599Z,8.50
2022-12-18T13:24:21.430Z,5.07
2022-12-18T13:26:48.420Z,7.63
2022-12-18T13:29:43.792Z,7.00
2022-12-18T13:32:23.018Z,9.97
2022-12-18T13:35:39.820Z,7.33
2022-12-18T13:38:22.910Z,6.23
2022-12-18T13:41:00.458Z,6.40
2022-12-18T13:43:43.443Z,5.37
2022-12-18T13:46:25.320Z,6.80
2022-12-18T13:49:02.911Z,5.57
2022-12-18T13:51:33.810Z,4.53
2022-12-18T13:54:14.458Z,5.47
2022-12-18T13:56:46.471Z,6.27
2022-12-18T13:59:21.924Z,3.60
2022-12-18T14:01:55.378Z,5.20
2022-12-18T14:04:27.252Z,5.87
2022-12-18T14:10:41.112Z,5.30
2022-12-18T14:12:48.754Z,4.95
2022-12-18T14:15:30.923Z,7.40
2022-12-18T14:18:01.722Z,4.93
2022-12-18T14:20:31.857Z,5.20
2022-12-18T14:23:00.127Z,6.77
2022-12-18T14:25:31.928Z,4.77
2022-12-18T14:28:14.895Z,9.50
2022-12-18T14:33:13.072Z,5.87
2022-12-18T14:35:43.618Z,5.70
2022-12-18T14:38:25.847Z,5.90
2022-12-18T14:45:53.580Z,4.60
2022-12-18T14:48:31.171Z,3.53
2022-12-18T14:51:02.219Z,5.17
2022-12-18T14:53:47.587Z,5.83
2022-12-18T14:56:22.849Z,5.20
2022-12-18T14:58:53.811Z,5.63
2022-12-18T15:01:24.614Z,5.67
2022-12-18T15:03:52.991Z,4.47
2022-12-18T15:06:30.543Z,5.40
2022-12-18T15:08:58.426Z,4.40
2022-12-18T15:11:37.128Z,5.07
2022-12-18T15:14:31.985Z,5.60
2022-12-18T15:17:00.939Z,4.97
2022-12-18T15:19:36.686Z,9.43
2022-12-18T15:22:06.671Z,9.23
2022-12-18T15:24:33.968Z,7.53
2022-12-18T15:27:02.259Z,7.03
2022-12-18T15:29:29.172Z,5.90
2022-12-18T15:32:02.451Z,6.23
2022-12-18T15:34:30.840Z,5.33
2022-12-18T15:36:57.711Z,6.47
2022-12-18T15:39:25.269Z,5.83
2022-12-18T15:41:52.749Z,5.83
2022-12-18T15:44:25.605Z,5.27
2022-12-18T15:46:52.493Z,6.07
2022-12-18T15:49:19.250Z,5.40
2022-12-18T15:51:51.960Z,4.80
2022-12-18T15:54:18.946Z,5.40
2022-12-18T15:56:46.340Z,5.50
2022-12-18T15:59:16.107Z,5.83
2022-12-18T16:01:47.325Z,4.20
2022-12-18T16:04:17.874Z,5.93
2022-12-18T16:07:13.288Z,6.83
2022-12-18T16:09:31.461Z,5.50
2022-12-18T16:11:58.471Z,6.43
2022-12-18T16:14:27.786Z,3.83
2022-12-18T16:16:58.563Z,4.87
2022-12-18T16:19:26.975Z,5.57
2022-12-18T16:21:57.361Z,8.73
2022-12-18T16:24:26.249Z,9.07
2022-12-18T16:26:54.820Z,8.90
2022-12-18T16:29:22.136Z,6.90
2022-12-18T16:31:49.231Z,8.03
2022-12-18T16:34:22.758Z,7.93
2022-12-18T16:36:52.313Z,6.90
2022-12-18T16:39:19.214Z,5.87
2022-12-18T16:41:46.354Z,6.27
2022-12-18T16:44:13.885Z,8.77
2022-12-18T16:46:41.696Z,9.23
2022-12-18T16:49:09.407Z,6.13
2022-12-18T16:51:37.737Z,8.77
2022-12-18T16:54:10.172Z,8.00
2022-12-18T16:56:41.707Z,7.37
2022-12-18T16:59:11.689Z,6.07
2022-12-18T17:01:38.998Z,7.47
2022-12-18T17:04:07.074Z,7.07
2022-12-18T17:06:40.116Z,7.20
2022-12-18T17:09:11.835Z,6.97
2022-12-18T17:11:38.955Z,6.10
2022-12-18T17:14:12.964Z,5.03
2022-12-18T17:16:40.137Z,6.77
2022-12-18T17:19:10.994Z,6.67
2022-12-18T17:21:43.996Z,6.30
2022-12-18T17:24:11.555Z,6.40
2022-12-18T17:26:38.565Z,6.93
2022-12-18T17:29:06.784Z,6.10
2022-12-18T17:31:35.029Z,5.53
2022-12-18T17:34:03.003Z,4.93
2022-12-18T17:36:30.395Z,5.83
2022-12-18T17:39:01.258Z,4.83
2022-12-18T17:41:30.201Z,6.00
2022-12-18T17:43:59.583Z,6.33
2022-12-18T17:46:29.261Z,5.23
2022-12-18T17:48:57.212Z,6.33
2022-12-18T17:51:24.264Z,10.30
2022-12-18T17:53:51.379Z,5.23
2022-12-18T17:56:22.527Z,5.60
2022-12-18T17:58:50.543Z,5.87
2022-12-18T18:01:20.339Z,6.40
2022-12-18T18:03:48.966Z,5.37
2022-12-18T18:06:20.645Z,5.67
2022-12-18T18:08:47.752Z,7.13
2022-12-18T18:11:17.798Z,8.20
2022-12-18T18:13:47.544Z,6.13
2022-12-18T18:16:14.481Z,6.23
2022-12-18T18:18:47.187Z,7.77
2022-12-18T18:21:14.323Z,5.97
2022-12-18T18:23:43.504Z,5.47
2022-12-18T18:26:12.712Z,5.83
2022-12-18T18:28:39.655Z,5.97
2022-12-18T18:31:10.336Z,4.60
2022-12-18T18:33:38.366Z,3.67
2022-12-18T18:36:09.910Z,5.53
2022-12-18T18:38:38.303Z,5.67
2022-12-18T18:41:06.252Z,5.77
2022-12-18T18:43:34.902Z,5.90
2022-12-18T18:46:07.695Z,6.40
2022-12-18T18:48:36.587Z,4.43
2022-12-18T18:51:07.308Z,4.90
2022-12-18T18:53:37.436Z,5.33
2022-12-18T18:56:40.858Z,5.30
2022-12-18T18:58:54.583Z,5.60
2022-12-18T19:01:25.139Z,5.77
2022-12-18T19:03:53.736Z,4.27
2022-12-18T19:06:23.575Z,5.03
2022-12-18T19:08:52.270Z,3.90
2022-12-18T19:11:21.077Z,6.60
2022-12-18T19:13:48.650Z,5.77
2022-12-18T19:16:15.648Z,4.87
2022-12-18T19:18:44.564Z,4.77
2022-12-18T19:21:37.289Z,4.97
2022-12-18T19:24:05.443Z,6.00
2022-12-18T19:26:32.441Z,4.63
2022-12-18T19:29:04.626Z,4.77
2022-12-18T19:31:36.053Z,5.50
2022-12-18T19:34:05.865Z,5.28
2022-12-18T19:36:33.546Z,5.43
2022-12-18T19:39:02.031Z,5.37
2022-12-18T19:41:32.809Z,5.00
2022-12-18T19:44:01.117Z,3.97
2022-12-18T19:46:35.064Z,5.47
2022-12-18T19:49:01.944Z,6.17
2022-12-18T19:51:32.122Z,6.33
2022-12-18T19:54:01.844Z,6.17
2022-12-18T19:56:32.363Z,4.37
2022-12-18T19:58:59.680Z,4.57
2022-12-18T20:01:28.530Z,4.63
2022-12-18T20:03:56.851Z,4.83
2022-12-18T20:06:28.165Z,6.03
2022-12-18T20:09:00.565Z,5.43
2022-12-18T20:11:28.897Z,5.80
2022-12-18T20:13:56.051Z,6.40
2022-12-18T20:16:23.202Z,7.37
2022-12-18T20:18:50.040Z,6.00
2022-12-18T20:21:18.380Z,6.37
2022-12-18T20:23:45.524Z,5.43
2022-12-18T20:26:13.817Z,5.10
2022-12-18T20:28:40.849Z,8.13
2022-12-18T20:31:10.517Z,6.43
2022-12-18T20:33:42.040Z,5.77
2022-12-18T20:36:14.470Z,7.67
2022-12-18T20:38:43.183Z,7.57
2022-12-18T20:41:17.506Z,5.73
2022-12-18T20:43:45.062Z,6.17
2022-12-18T20:46:15.818Z,5.27
2022-12-18T20:48:45.930Z,5.17
2022-12-18T20:51:16.379Z,6.87
2022-12-18T20:53:43.986Z,5.70
2022-12-18T20:56:18.373Z,9.27
2022-12-18T20:58:50.228Z,8.97
2022-12-18T21:01:21.259Z,5.60
2022-12-18T21:03:49.606Z,6.23
2022-12-18T21:06:19.812Z,6.27
2022-12-18T21:08:47.464Z,6.20
2022-12-18T21:11:26.900Z,7.50
2022-12-18T21:13:54.942Z,5.13
2022-12-18T21:16:22.313Z,6.93
2022-12-18T21:18:49.049Z,8.10
2022-12-18T21:21:16.205Z,6.70
2022-12-18T21:23:43.216Z,5.33
2022-12-18T21:26:20.004Z,6.87
2022-12-18T21:28:47.069Z,4.90
2022-12-18T21:31:14.651Z,6.87
2022-12-18T21:33:41.828Z,4.97
2022-12-18T21:36:10.417Z,6.03
2022-12-18T21:38:37.185Z,6.00
2022-12-18T21:41:07.106Z,5.90
2022-12-18T21:43:37.516Z,7.77
2022-12-18T21:46:04.737Z,5.97
2022-12-18T21:48:31.707Z,5.83
2022-12-18T21:50:58.452Z,4.87
2022-12-18T21:53:25.471Z,6.77
2022-12-18T21:55:57.742Z,6.60
2022-12-18T21:58:25.056Z,5.60
2022-12-18T22:00:53.459Z,5.03
2022-12-18T22:03:20.618Z,6.50
2022-12-18T22:05:50.607Z,6.20
2022-12-18T22:08:29.829Z,6.25
2022-12-18T22:10:56.924Z,6.17
2022-12-18T22:13:23.766Z,6.30
2022-12-18T22:15:50.679Z,5.77
2022-12-18T22:18:19.107Z,6.43
2022-12-18T22:20:45.846Z,5.50
2022-12-18T22:23:13.195Z,4.07
2022-12-18T22:25:40.217Z,5.80
2022-12-18T22:28:07.420Z,6.07
2022-12-18T22:30:34.456Z,5.93
2022-12-18T22:33:02.003Z,6.37
2022-12-18T22:35:30.456Z,5.83
2022-12-18T22:37:58.713Z,5.30
2022-12-18T22:40:27.869Z,4.47
2022-12-18T22:42:55.571Z,6.57
2022-12-18T22:45:22.920Z,6.30
2022-12-18T22:47:50.495Z,7.00
2022-12-18T22:50:17.447Z,5.43
2022-12-18T22:52:45.834Z,5.50
2022-12-18T22:55:12.863Z,7.03
2022-12-18T22:57:39.902Z,5.10
2022-12-18T23:00:17.602Z,5.93
2022-12-18T23:02:49.424Z,6.13
2022-12-18T23:05:18.071Z,5.37
2022-12-18T23:07:46.145Z,5.33
2022-12-18T23:10:12.919Z,6.60
2022-12-18T23:12:39.747Z,6.20
2022-12-18T23:15:07.310Z,6.17
2022-12-18T23:17:34.074Z,6.10
2022-12-18T23:20:01.828Z,6.10
2022-12-18T23:22:30.226Z,5.40
2022-12-18T23:24:59.427Z,6.07
2022-12-18T23:27:26.174Z,5.80
2022-12-18T23:29:53.194Z,5.60
2022-12-18T23:32:22.412Z,5.17
2022-12-18T23:34:49.215Z,5.17
2022-12-18T23:37:35.316Z,6.27
2022-12-18T23:40:05.598Z,5.87
2022-12-18T23:42:32.449Z,5.93
2022-12-18T23:45:09.368Z,5.80
2022-12-18T23:47:45.283Z,5.63
2022-12-18T23:50:14.976Z,4.67
2022-12-18T23:52:42.015Z,5.53
2022-12-18T23:55:10.409Z,5.90
2022-12-18T23:57:37.088Z,5.43
